createdAt,value
2023-08-11T00:00:22.828Z,101031.14
2023-08-11T00:03:14.397Z,101033.41
2023-08-11T00:05:45.004Z,101030.89
2023-08-11T00:08:16.670Z,101030.27
2023-08-11T00:10:48.001Z,101029.34
2023-08-11T00:13:18.675Z,101028.35
2023-08-11T00:15:49.522Z,101026.13
2023-08-11T00:18:27.656Z,101027.56
2023-08-11T00:21:00.971Z,101027.38
2023-08-11T00:23:37.654Z,101023.99
2023-08-11T00:26:08.865Z,101021.16
2023-08-11T00:28:41.497Z,101020.61
2023-08-11T00:31:12.759Z,101020.77
2023-08-11T00:33:47.846Z,101022.40
2023-08-11T00:36:22.971Z,101019.02
2023-08-11T00:39:01.613Z,101019.69
2023-08-11T00:41:37.733Z,101020.56
2023-08-11T00:44:10.364Z,101021.00
2023-08-11T00:46:44.434Z,101018.80
2023-08-11T00:49:16.335Z,101021.88
2023-08-11T00:51:46.965Z,101020.48
2023-08-11T00:54:17.905Z,101021.30
2023-08-11T00:56:49.459Z,101020.80
2023-08-11T00:59:21.833Z,101016.41
2023-08-11T01:01:56.630Z,101013.59
2023-08-11T01:04:27.414Z,101016.71
2023-08-11T01:07:05.991Z,101016.44
2023-08-11T01:09:44.389Z,101013.15
2023-08-11T01:12:19.532Z,101008.84
2023-08-11T01:14:54.858Z,101007.34
2023-08-11T01:17:25.959Z,101010.07
2023-08-11T01:19:56.726Z,101007.21
2023-08-11T01:22:31.699Z,101008.64
2023-08-11T01:25:02.436Z,101007.25
2023-08-11T01:27:32.915Z,101002.41
2023-08-11T01:30:03.426Z,101002.09
2023-08-11T01:32:39.611Z,101004.32
2023-08-11T01:35:19.734Z,101002.70
2023-08-11T01:38:00.679Z,100997.55
2023-08-11T01:40:31.588Z,100991.98
2023-08-11T01:43:06.947Z,100994.29
2023-08-11T01:45:44.404Z,100997.95
2023-08-11T01:48:15.850Z,100995.84
2023-08-11T01:50:47.125Z,100996.17
2023-08-11T01:53:18.775Z,100992.15
2023-08-11T01:55:50.466Z,100993.34
2023-08-11T01:58:21.215Z,100996.77
2023-08-11T02:00:55.348Z,100994.27
2023-08-11T02:03:26.032Z,101000.63
2023-08-11T02:06:00.095Z,101000.34
2023-08-11T02:08:33.230Z,101003.08
2023-08-11T02:11:04.788Z,101007.10
2023-08-11T02:13:35.384Z,101006.29
2023-08-11T02:16:06.219Z,101006.46
2023-08-11T02:18:36.873Z,101002.22
2023-08-11T02:21:11.490Z,101006.42
2023-08-11T02:23:46.703Z,101004.91
2023-08-11T02:26:20.004Z,101001.29
2023-08-11T02:28:53.056Z,101000.14
2023-08-11T02:31:24.143Z,100995.73
2023-08-11T02:33:56.465Z,101002.10
2023-08-11T02:36:30.249Z,101006.38
2023-08-11T02:39:01.016Z,101013.48
2023-08-11T02:41:31.862Z,101013.88
2023-08-11T02:44:04.523Z,101013.94
2023-08-11T02:46:35.417Z,101017.11
2023-08-11T02:49:06.362Z,101021.95
2023-08-11T02:51:45.187Z,101018.96
2023-08-11T02:54:18.396Z,101016.55
2023-08-11T02:56:49.618Z,101020.73
2023-08-11T02:59:27.095Z,101018.55
2023-08-11T03:01:58.411Z,101013.95
2023-08-11T03:04:29.712Z,101017.59
2023-08-11T03:07:02.427Z,101017.45
2023-08-11T03:09:36.556Z,101021.70
2023-08-11T03:12:08.865Z,101020.41
2023-08-11T03:14:39.983Z,101025.09
2023-08-11T03:17:13.891Z,101020.42
2023-08-11T03:19:47.503Z,101023.86
2023-08-11T03:22:21.074Z,101028.02
2023-08-11T03:25:18.911Z,101035.04
2023-08-11T03:27:55.639Z,101030.68
2023-08-11T03:30:27.780Z,101035.09
2023-08-11T03:33:01.928Z,101036.81
2023-08-11T03:35:56.570Z,101039.60
2023-08-11T03:38:28.341Z,101042.09
2023-08-11T03:40:59.141Z,101039.09
2023-08-11T03:43:29.751Z,101039.02
2023-08-11T03:46:00.680Z,101039.41
2023-08-11T03:48:34.579Z,101039.35
2023-08-11T03:51:05.455Z,101041.02
2023-08-11T03:53:36.197Z,101042.68
2023-08-11T03:56:08.931Z,101042.55
2023-08-11T03:58:42.284Z,101038.89
2023-08-11T04:01:14.176Z,101040.08
2023-08-11T04:03:46.656Z,101040.84
2023-08-11T04:06:17.582Z,101036.45
2023-08-11T04:08:48.307Z,101039.24
2023-08-11T04:11:23.262Z,101038.21
2023-08-11T04:13:55.842Z,101036.75
2023-08-11T04:16:26.872Z,101035.17
2023-08-11T04:19:03.332Z,101037.18
2023-08-11T04:21:36.189Z,101033.39
2023-08-11T04:24:14.072Z,101035.14
2023-08-11T04:26:44.708Z,101037.62
2023-08-11T04:29:15.322Z,101037.37
2023-08-11T04:31:45.942Z,101038.27
2023-08-11T04:34:17.729Z,101038.92
2023-08-11T04:36:48.914Z,101040.71
2023-08-11T04:39:22.571Z,101038.01
2023-08-11T04:41:55.973Z,101034.77
2023-08-11T04:44:52.895Z,101041.29
2023-08-11T04:47:26.177Z,101037.86
2023-08-11T04:49:58.811Z,101045.66
2023-08-11T04:52:29.624Z,101050.73
2023-08-11T04:55:00.435Z,101048.53
2023-08-11T04:57:30.867Z,101051.80
2023-08-11T05:00:04.027Z,101053.64
2023-08-11T05:02:39.002Z,101053.57
2023-08-11T05:05:10.339Z,101053.06
2023-08-11T05:07:41.349Z,101054.73
2023-08-11T05:10:16.859Z,101055.73
2023-08-11T05:12:52.382Z,101052.86
2023-08-11T05:15:24.399Z,101052.35
2023-08-11T05:17:59.939Z,101053.42
2023-08-11T05:20:30.990Z,101058.64
2023-08-11T05:23:01.763Z,101058.68
2023-08-11T05:25:32.239Z,101064.09
2023-08-11T05:28:06.720Z,101062.15
2023-08-11T05:30:37.390Z,101055.08
2023-08-11T05:33:08.338Z,101058.34
2023-08-11T05:35:39.129Z,101056.36
2023-08-11T05:38:09.584Z,101059.06
2023-08-11T05:40:40.420Z,101061.69
2023-08-11T05:43:10.934Z,101056.14
2023-08-11T05:45:41.649Z,101054.42
2023-08-11T05:48:14.827Z,101056.98
2023-08-11T05:50:47.343Z,101059.98
2023-08-11T05:53:20.248Z,101060.02
2023-08-11T05:55:52.101Z,101059.58
2023-08-11T05:58:22.914Z,101063.13
2023-08-11T06:00:54.926Z,101063.15
2023-08-11T06:03:31.712Z,101060.77
2023-08-11T06:06:03.294Z,101058.17
2023-08-11T06:08:37.157Z,101058.55
2023-08-11T06:11:07.794Z,101055.05
2023-08-11T06:13:41.477Z,101058.11
2023-08-11T06:16:13.135Z,101062.67
2023-08-11T06:18:45.199Z,101066.71
2023-08-11T06:21:18.939Z,101069.50
2023-08-11T06:23:49.729Z,101068.00
2023-08-11T06:26:25.804Z,101070.23
2023-08-11T06:28:57.178Z,101067.37
2023-08-11T06:31:27.933Z,101070.59
2023-08-11T06:34:07.091Z,101074.02
2023-08-11T06:36:41.633Z,101076.77
2023-08-11T06:39:13.123Z,101074.88
2023-08-11T06:41:44.126Z,101079.37
2023-08-11T06:44:19.161Z,101079.91
2023-08-11T06:46:54.514Z,101080.77
2023-08-11T06:49:27.630Z,101079.44
2023-08-11T06:52:04.072Z,101078.33
2023-08-11T06:54:35.319Z,101081.63
2023-08-11T06:57:06.225Z,101083.89
2023-08-11T06:59:36.998Z,101088.39
2023-08-11T07:02:07.860Z,101086.35
2023-08-11T07:04:38.588Z,101084.08
2023-08-11T07:07:09.704Z,101082.17
2023-08-11T07:09:46.288Z,101082.77
2023-08-11T07:12:16.829Z,101082.95
2023-08-11T07:14:47.388Z,101088.13
2023-08-11T07:17:18.088Z,101087.16
2023-08-11T07:19:48.939Z,101088.66
2023-08-11T07:22:25.051Z,101089.96
2023-08-11T07:25:00.752Z,101085.92
2023-08-11T07:27:31.331Z,101092.45
2023-08-11T07:30:01.862Z,101091.41
2023-08-11T07:32:34.562Z,101091.26
2023-08-11T07:35:08.463Z,101089.36
2023-08-11T07:37:39.057Z,101090.36
2023-08-11T07:40:10.907Z,101089.34
2023-08-11T07:42:41.475Z,101093.77
2023-08-11T07:45:12.938Z,101090.95
2023-08-11T07:47:46.805Z,101088.40
2023-08-11T07:50:17.679Z,101089.66
2023-08-11T07:52:48.147Z,101091.88
2023-08-11T07:55:19.385Z,101091.27
2023-08-11T07:57:56.476Z,101088.38
2023-08-11T08:00:27.101Z,101089.17
2023-08-11T08:02:58.002Z,101091.77
2023-08-11T08:05:28.955Z,101089.64
2023-08-11T08:07:59.577Z,101094.19
2023-08-11T08:10:31.549Z,101097.95
2023-08-11T08:13:02.072Z,101098.21
2023-08-11T08:15:32.831Z,101094.22
2023-08-11T08:18:05.949Z,101092.88
2023-08-11T08:20:36.645Z,101095.12
2023-08-11T08:23:12.033Z,101097.36
2023-08-11T08:25:44.411Z,101099.88
2023-08-11T08:28:17.336Z,101102.20
2023-08-11T08:30:48.183Z,101100.52
2023-08-11T08:33:18.672Z,101105.15
2023-08-11T08:35:52.223Z,101101.94
2023-08-11T08:38:24.779Z,101101.12
2023-08-11T08:40:56.470Z,101095.38
2023-08-11T08:43:27.296Z,101098.19
2023-08-11T08:45:59.083Z,101093.26
2023-08-11T08:48:35.064Z,101097.83
2023-08-11T08:51:05.736Z,101100.33
2023-08-11T08:53:36.315Z,101104.54
2023-08-11T08:56:09.393Z,101093.38
2023-08-11T08:58:42.923Z,101097.45
2023-08-11T09:01:14.712Z,101094.93
2023-08-11T09:03:47.537Z,101097.81
2023-08-11T09:06:18.619Z,101095.18
2023-08-11T09:08:50.561Z,101099.20
2023-08-11T09:11:23.110Z,101095.81
2023-08-11T09:13:54.800Z,101096.85
2023-08-11T09:16:25.889Z,101098.58
2023-08-11T09:18:56.711Z,101098.16
2023-08-11T09:21:27.502Z,101096.36
2023-08-11T09:23:58.373Z,101094.79
2023-08-11T09:26:30.975Z,101098.82
2023-08-11T09:29:01.563Z,101096.27
2023-08-11T09:31:32.237Z,101102.71
2023-08-11T09:34:14.205Z,101099.19
2023-08-11T09:36:45.373Z,101101.37
2023-08-11T09:39:19.350Z,101099.36
2023-08-11T09:41:51.010Z,101100.27
2023-08-11T09:44:27.096Z,101092.98
2023-08-11T09:46:57.929Z,101089.48
2023-08-11T09:49:28.676Z,101096.23
2023-08-11T09:52:05.467Z,101094.77
2023-08-11T09:54:36.782Z,101094.25
2023-08-11T09:57:16.369Z,101087.80
2023-08-11T09:59:48.335Z,101091.58
2023-08-11T10:02:22.349Z,101092.54
2023-08-11T10:04:58.767Z,101089.36
2023-08-11T10:07:32.202Z,101093.94
2023-08-11T10:10:07.859Z,101093.52
2023-08-11T10:12:41.818Z,101092.60
2023-08-11T10:15:15.797Z,101091.00
2023-08-11T10:17:46.453Z,101091.47
2023-08-11T10:20:17.443Z,101089.73
2023-08-11T10:22:48.068Z,101091.20
2023-08-11T10:25:19.734Z,101088.10
2023-08-11T10:27:55.409Z,101087.60
2023-08-11T10:30:27.228Z,101083.12
2023-08-11T10:33:06.136Z,101081.18
2023-08-11T10:35:50.610Z,101078.98
2023-08-11T10:38:27.021Z,101078.73
2023-08-11T10:41:03.097Z,101077.23
2023-08-11T10:43:34.635Z,101077.35
2023-08-11T10:46:19.758Z,101077.67
2023-08-11T10:48:50.401Z,101071.46
2023-08-11T10:51:28.896Z,101067.89
2023-08-11T10:54:02.338Z,101068.50
2023-08-11T10:56:34.222Z,101066.75
2023-08-11T10:59:13.857Z,101063.10
2023-08-11T11:01:46.804Z,101066.27
2023-08-11T11:04:19.070Z,101064.54
2023-08-11T11:06:50.708Z,101063.52
2023-08-11T11:09:23.874Z,101067.02
2023-08-11T11:11:57.309Z,101064.10
2023-08-11T11:14:31.061Z,101060.14
2023-08-11T11:17:02.438Z,101063.71
2023-08-11T11:19:34.381Z,101066.02
2023-08-11T11:22:09.773Z,101067.73
2023-08-11T11:24:44.107Z,101065.10
2023-08-11T11:27:14.823Z,101060.02
2023-08-11T11:29:48.539Z,101061.80
2023-08-11T11:32:22.162Z,101066.04
2023-08-11T11:34:55.721Z,101066.08
2023-08-11T11:37:26.342Z,101062.67
2023-08-11T11:40:05.125Z,101063.81
2023-08-11T11:42:36.367Z,101065.02
2023-08-11T11:45:08.729Z,101062.90
2023-08-11T11:47:41.728Z,101066.95
2023-08-11T11:50:15.083Z,101061.60
2023-08-11T11:52:53.222Z,101058.77
2023-08-11T11:55:23.635Z,101058.17
2023-08-11T11:57:57.820Z,101059.65
2023-08-11T12:00:30.206Z,101059.74
2023-08-11T12:03:01.079Z,101054.50
2023-08-11T12:05:34.901Z,101053.85
2023-08-11T12:08:25.717Z,101058.52
2023-08-11T12:10:57.135Z,101054.14
2023-08-11T12:13:28.719Z,101054.82
2023-08-11T12:15:59.905Z,101048.74
2023-08-11T12:18:32.557Z,101045.09
2023-08-11T12:21:04.945Z,101048.22
2023-08-11T12:23:36.794Z,101050.30
2023-08-11T12:26:09.079Z,101052.95
2023-08-11T12:28:39.770Z,101056.97
2023-08-11T12:31:13.748Z,101053.45
2023-08-11T12:33:44.886Z,101054.54
2023-08-11T12:36:16.301Z,101052.35
2023-08-11T12:38:48.158Z,101052.17
2023-08-11T12:41:20.156Z,101053.05
2023-08-11T12:43:51.732Z,101052.83
2023-08-11T12:46:23.333Z,101049.67
2023-08-11T12:48:55.656Z,101049.09
2023-08-11T12:51:26.527Z,101049.26
2023-08-11T12:53:57.583Z,101049.42
2023-08-11T12:56:28.418Z,101049.24
2023-08-11T12:59:00.592Z,101048.62
2023-08-11T13:01:31.589Z,101045.97
2023-08-11T13:04:03.046Z,101048.50
2023-08-11T13:06:33.769Z,101041.15
2023-08-11T13:09:13.522Z,101045.39
2023-08-11T13:11:46.736Z,101047.69
2023-08-11T13:14:17.401Z,101041.60
2023-08-11T13:16:48.338Z,101045.27
2023-08-11T13:19:19.064Z,101038.39
2023-08-11T13:21:49.893Z,101034.86
2023-08-11T13:24:21.603Z,101029.92
2023-08-11T13:26:53.525Z,101033.94
2023-08-11T13:29:24.877Z,101032.61
2023-08-11T13:32:01.796Z,101039.88
2023-08-11T13:34:32.514Z,101039.34
2023-08-11T13:37:03.282Z,101036.42
2023-08-11T13:39:34.925Z,101033.77
2023-08-11T13:42:07.485Z,101031.46
2023-08-11T13:44:38.516Z,101032.20
2023-08-11T13:47:09.028Z,101029.95
2023-08-11T13:49:40.020Z,101027.17
2023-08-11T13:52:11.025Z,101029.98
2023-08-11T13:54:44.220Z,101027.55
2023-08-11T13:57:14.725Z,101025.11
2023-08-11T13:59:45.334Z,101022.29
2023-08-11T14:02:16.029Z,101027.48
2023-08-11T14:04:46.795Z,101024.83
2023-08-11T14:07:29.515Z,101021.87
2023-08-11T14:10:01.758Z,101022.98
2023-08-11T14:12:32.357Z,101024.27
2023-08-11T14:15:02.958Z,101022.70
2023-08-11T14:17:33.756Z,101020.83
2023-08-11T14:20:04.276Z,101016.80
2023-08-11T14:22:34.975Z,101021.61
2023-08-11T14:25:06.154Z,101028.67
2023-08-11T14:27:36.823Z,101025.70
2023-08-11T14:30:08.906Z,101024.84
2023-08-11T14:32:39.561Z,101024.83
2023-08-11T14:35:10.584Z,101024.06
2023-08-11T14:37:41.337Z,101024.19
2023-08-11T14:40:15.032Z,101027.58
2023-08-11T14:42:45.662Z,101024.02
2023-08-11T14:45:16.800Z,101025.67
2023-08-11T14:47:48.335Z,101021.89
2023-08-11T14:50:19.464Z,101016.29
2023-08-11T14:52:50.329Z,101023.45
2023-08-11T14:55:25.188Z,101026.44
2023-08-11T14:57:56.519Z,101025.96
2023-08-11T15:00:27.183Z,101026.57
2023-08-11T15:02:58.168Z,101027.46
2023-08-11T15:05:28.888Z,101032.88
2023-08-11T15:07:59.795Z,101028.77
2023-08-11T15:10:30.389Z,101029.48
2023-08-11T15:13:04.179Z,101027.79
2023-08-11T15:15:35.799Z,101031.94
2023-08-11T15:18:07.683Z,101028.49
2023-08-11T15:20:38.176Z,101027.63
2023-08-11T15:23:08.845Z,101027.00
2023-08-11T15:25:41.846Z,101029.16
2023-08-11T15:28:14.549Z,101021.92
2023-08-11T15:30:45.106Z,101024.76
2023-08-11T15:33:15.712Z,101024.63
2023-08-11T15:35:46.276Z,101025.08
2023-08-11T15:38:16.733Z,101025.10
2023-08-11T15:40:47.180Z,101026.61
2023-08-11T15:43:18.249Z,101032.16
2023-08-11T15:45:48.895Z,101038.83
2023-08-11T15:48:19.654Z,101037.09
2023-08-11T15:50:50.235Z,101036.90
2023-08-11T15:53:23.423Z,101035.29
2023-08-11T15:55:55.112Z,101030.98
2023-08-11T15:58:25.850Z,101032.62
2023-08-11T16:00:56.329Z,101033.09
2023-08-11T16:03:27.737Z,101028.92
2023-08-11T16:05:58.387Z,101031.80
2023-08-11T16:08:29.209Z,101028.56
2023-08-11T16:10:59.852Z,101033.23
2023-08-11T16:13:30.752Z,101033.20
2023-08-11T16:16:01.261Z,101036.76
2023-08-11T16:18:32.746Z,101041.05
2023-08-11T16:21:04.406Z,101038.10
2023-08-11T16:23:35.714Z,101037.55
2023-08-11T16:26:06.271Z,101038.24
2023-08-11T16:28:36.951Z,101036.82
2023-08-11T16:31:07.563Z,101034.98
2023-08-11T16:33:38.567Z,101035.57
2023-08-11T16:36:09.129Z,101036.98
2023-08-11T16:38:40.237Z,101042.95
2023-08-11T16:41:14.432Z,101043.75
2023-08-11T16:43:46.480Z,101043.80
2023-08-11T16:46:17.696Z,101040.69
2023-08-11T16:48:48.858Z,101038.66
2023-08-11T16:51:19.584Z,101040.92
2023-08-11T16:53:50.372Z,101045.64
2023-08-11T16:56:22.617Z,101049.00
2023-08-11T16:58:55.572Z,101053.85
2023-08-11T17:01:26.374Z,101053.04
2023-08-11T17:03:57.162Z,101061.75
2023-08-11T17:06:28.142Z,101062.11
2023-08-11T17:08:59.330Z,101064.38
2023-08-11T17:11:30.065Z,101067.17
2023-08-11T17:14:01.036Z,101071.24
2023-08-11T17:16:32.166Z,101069.17
2023-08-11T17:19:02.958Z,101066.94
2023-08-11T17:21:34.272Z,101066.11
2023-08-11T17:24:06.304Z,101065.98
2023-08-11T17:26:37.069Z,101064.04
2023-08-11T17:29:08.043Z,101065.94
2023-08-11T17:31:38.729Z,101065.85
2023-08-11T17:34:09.803Z,101065.64
2023-08-11T17:36:40.408Z,101067.75
2023-08-11T17:39:13.275Z,101066.53
2023-08-11T17:41:46.874Z,101068.70
2023-08-11T17:44:18.958Z,101064.08
2023-08-11T17:46:49.948Z,101067.53
2023-08-11T17:49:22.064Z,101068.25
2023-08-11T17:51:54.448Z,101074.04
2023-08-11T17:54:26.089Z,101075.30
2023-08-11T17:56:57.803Z,101076.16
2023-08-11T17:59:28.674Z,101078.25
2023-08-11T18:01:59.303Z,101084.26
2023-08-11T18:04:30.077Z,101086.67
2023-08-11T18:07:00.579Z,101090.14
2023-08-11T18:09:31.256Z,101096.37
2023-08-11T18:12:01.744Z,101102.73
2023-08-11T18:14:33.764Z,101104.89
2023-08-11T18:17:04.663Z,101106.86
2023-08-11T18:19:35.499Z,101106.32
2023-08-11T18:22:06.107Z,101113.98
2023-08-11T18:24:36.805Z,101122.80
2023-08-11T18:27:07.905Z,101126.25
2023-08-11T18:29:39.587Z,101127.35
2023-08-11T18:32:10.669Z,101127.29
2023-08-11T18:34:42.165Z,101133.77
2023-08-11T18:37:12.834Z,101134.23
2023-08-11T18:39:43.619Z,101137.15
2023-08-11T18:42:14.682Z,101135.56
2023-08-11T18:44:45.723Z,101137.14
2023-08-11T18:47:16.275Z,101136.24
2023-08-11T18:49:47.403Z,101139.14
2023-08-11T18:52:17.869Z,101142.11
2023-08-11T18:54:48.834Z,101146.30
2023-08-11T18:57:20.198Z,101146.79
2023-08-11T18:59:54.911Z,101147.32
2023-08-11T19:02:25.734Z,101146.16
2023-08-11T19:04:57.113Z,101149.52
2023-08-11T19:07:28.368Z,101148.20
2023-08-11T19:09:59.926Z,101145.80
2023-08-11T19:12:30.433Z,101149.42
2023-08-11T19:15:01.685Z,101151.38
2023-08-11T19:17:32.278Z,101159.52
2023-08-11T19:20:03.946Z,101159.21
2023-08-11T19:22:34.613Z,101158.47
2023-08-11T19:25:07.210Z,101157.48
2023-08-11T19:27:37.771Z,101160.73
2023-08-11T19:30:12.260Z,101160.52
2023-08-11T19:32:42.747Z,101158.35
2023-08-11T19:35:13.708Z,101163.13
2023-08-11T19:37:44.374Z,101167.38
2023-08-11T19:40:15.411Z,101169.48
2023-08-11T19:42:45.917Z,101169.48
2023-08-11T19:45:16.653Z,101165.05
2023-08-11T19:47:47.262Z,101168.86
2023-08-11T19:50:18.718Z,101170.64
2023-08-11T19:52:51.279Z,101167.34
2023-08-11T19:55:22.958Z,101165.03
2023-08-11T19:57:55.646Z,101165.50
2023-08-11T20:00:26.941Z,101166.70
2023-08-11T20:03:00.937Z,101163.05
2023-08-11T20:05:32.835Z,101160.67
2023-08-11T20:08:05.061Z,101161.92
2023-08-11T20:10:35.711Z,101160.74
2023-08-11T20:13:06.204Z,101158.49
2023-08-11T20:15:36.857Z,101158.75
2023-08-11T20:18:07.621Z,101155.86
2023-08-11T20:20:38.944Z,101150.40
2023-08-11T20:23:09.584Z,101156.09
2023-08-11T20:25:40.255Z,101159.52
2023-08-11T20:28:10.874Z,101163.29
2023-08-11T20:30:43.311Z,101162.55
2023-08-11T20:33:13.911Z,101156.05
2023-08-11T20:35:47.254Z,101154.75
2023-08-11T20:38:17.642Z,101153.52
2023-08-11T20:40:49.788Z,101156.48
2023-08-11T20:43:20.249Z,101159.38
2023-08-11T20:45:51.225Z,101161.59
2023-08-11T20:48:23.027Z,101162.89
2023-08-11T20:50:59.740Z,101167.00
2023-08-11T20:53:30.114Z,101165.14
2023-08-11T20:56:02.364Z,101165.30
2023-08-11T20:58:32.984Z,101168.55
2023-08-11T21:01:03.822Z,101166.52
2023-08-11T21:03:34.617Z,101167.06
2023-08-11T21:06:06.060Z,101168.82
2023-08-11T21:08:36.547Z,101167.65
2023-08-11T21:11:07.545Z,101165.03
2023-08-11T21:13:38.099Z,101163.29
2023-08-11T21:16:09.141Z,101162.67
2023-08-11T21:18:39.814Z,101165.11
2023-08-11T21:21:10.684Z,101161.00
2023-08-11T21:23:41.177Z,101159.29
2023-08-11T21:26:12.455Z,101160.05
2023-08-11T21:28:43.015Z,101155.32
2023-08-11T21:31:18.833Z,101153.05
2023-08-11T21:34:00.106Z,101154.34
2023-08-11T21:36:30.679Z,101153.45
2023-08-11T21:39:02.337Z,101155.95
2023-08-11T21:41:34.698Z,101154.52
2023-08-11T21:44:08.319Z,101154.80
2023-08-11T21:46:39.150Z,101155.27
2023-08-11T21:49:09.936Z,101152.67
2023-08-11T21:51:40.793Z,101152.58
2023-08-11T21:54:11.308Z,101151.07
2023-08-11T21:56:42.275Z,101152.10
2023-08-11T21:59:12.941Z,101149.48
2023-08-11T22:01:43.975Z,101150.64
2023-08-11T22:04:15.132Z,101151.72
2023-08-11T22:06:45.830Z,101149.23
2023-08-11T22:09:16.291Z,101145.50
2023-08-11T22:11:47.115Z,101144.38
2023-08-11T22:14:18.845Z,101148.21
2023-08-11T22:16:49.994Z,101146.56
2023-08-11T22:19:20.758Z,101148.07
2023-08-11T22:21:53.400Z,101145.58
2023-08-11T22:24:38.793Z,101145.11
2023-08-11T22:27:12.632Z,101148.83
2023-08-11T22:29:45.332Z,101151.22
2023-08-11T22:32:16.844Z,101150.20
2023-08-11T22:34:54.468Z,101147.36
2023-08-11T22:37:26.219Z,101145.55
2023-08-11T22:40:21.425Z,101147.79
2023-08-11T22:42:55.575Z,101146.88
2023-08-11T22:45:26.340Z,101146.84
2023-08-11T22:47:58.572Z,101148.98
2023-08-11T22:50:29.856Z,101148.16
2023-08-11T22:53:01.314Z,101147.27
2023-08-11T22:55:32.976Z,101151.17
2023-08-11T22:58:04.119Z,101149.27
2023-08-11T23:00:34.610Z,101148.75
2023-08-11T23:03:06.140Z,101150.08
2023-08-11T23:05:36.600Z,101149.95
2023-08-11T23:08:07.942Z,101151.39
2023-08-11T23:10:38.478Z,101150.19
2023-08-11T23:13:09.171Z,101146.34
2023-08-11T23:15:39.685Z,101145.92
2023-08-11T23:18:10.482Z,101147.73
2023-08-11T23:20:41.399Z,101151.08
2023-08-11T23:23:13.084Z,101152.73
2023-08-11T23:25:44.261Z,101152.91
2023-08-11T23:28:15.754Z,101153.95
2023-08-11T23:30:46.249Z,101155.13
2023-08-11T23:33:17.632Z,101154.91
2023-08-11T23:35:48.198Z,101154.04
2023-08-11T23:38:19.380Z,101152.55
2023-08-11T23:40:49.960Z,101150.27
2023-08-11T23:43:20.943Z,101149.64
2023-08-11T23:45:51.691Z,101152.36
2023-08-11T23:48:24.688Z,101151.42
2023-08-11T23:50:57.451Z,101149.20
2023-08-11T23:53:28.740Z,101155.48
2023-08-11T23:56:00.726Z,101154.33
2023-08-11T23:58:31.684Z,101153.59
